Stadskanaal Airfield

EHST · Groningen, 荷兰

罗盘
风向 的 风向 的 风向 到 风向 320° Stadskanaal Airfield 6/24
风: 3 kt, 1 beaufort


3 kt
改变
0 1.000 2.000 3.000 4.000 5.000
FEW 1.500 ft
SCT 2.800 ft
BKN 3.200 ft
METAR EHGG 060325Z AUTO 32003KT 280V350 9999 FEW015 SCT028 BKN032 04/03 Q1019

METAR Stadskanaal Airfield - EHST

Stadskanaal Airfield是,荷兰中的小机场。 该机场有一条跑道: 6/24. 该领域的国际民航组织标志是EHST.

这份报告是针对2022年12月6日 04:25, 当地时间在Groningen Airport Eelde进行的。

机场观察

风向为320°,速度为3 kt。 风向在280°和350°之间变化。

可见度为10 km 或者更多。

有几云在1.500 ft的高度, 疏云,零星散落的云朵在2.800 ft的高度 和 碎云在3.200 ft的高度。 破损或更高的上限为3.200 ft。

温度为4 °C,阵风为1 °C。 露点为3 °C,相对湿度为93%。 海平面上的气压为1019 hPa (QNH)。

白天

今天,太阳从08:29升起,在16:16降落。 这适用于Stadskanaal Airfield,世界夏令时可能有所不同。 当地时间与世界标准时间之间的时差为+1 小时。 当前,没有夏令时有效。

公司介绍

我们没有关于这个机场的公司信息。

体会

到Vliegles.nl去找飞行课程,跳伞和其他飞行体验。 浏览页面,了解Stadskanaal Airfield附近所有可用的活动。 你也可以使用搜索功能来寻找你所在地附近的特定飞行课程、跳伞或其他飞行体验。

跑道

Id 标题 侧风 逆风 侧风 %
6/24 058°-238° 3 kt 99 %

逆风成分最大的方向会被突出显示,并用于横风计算。 这并不一定意味着这个方向在使用。

乌云

1.500 ft FEW 几云
2.800 ft SCT 疏云,零星散落的云朵
3.200 ft BKN 碎云

温度 & 天气

温度 4 °C
露点 3 °C
相对湿度 93%
风寒 1 °C
Kp-index 0 (0-9)

白天

日出
08:31 (3:38)
中午
12:24
日落
16:17

小工具

你想在你的网站上有一个关于Stadskanaal Airfield的当前航空天气(METAR)的小部件吗?

显示HTML代码

我们和第三方通过cookies跟踪您在我们网站上的互联网行为。如果你继续,我们认为你同意我们的饼干政策